sensor_id;sensor_type;location;lat;lon;timestamp;temperature;humidity
19799;DHT22;10059;59.850;10.454;2023-06-10T00:00:21;10.70;99.90
19799;DHT22;10059;59.850;10.454;2023-06-10T00:02:48;10.60;99.90
19799;DHT22;10059;59.850;10.454;2023-06-10T00:05:16;10.70;99.90
19799;DHT22;10059;59.850;10.454;2023-06-10T00:07:47;10.60;99.90
19799;DHT22;10059;59.850;10.454;2023-06-10T00:10:15;10.50;99.90
19799;DHT22;10059;59.850;10.454;2023-06-10T00:12:41;10.50;99.90
19799;DHT22;10059;59.850;10.454;2023-06-10T00:15:09;10.40;99.90
19799;DHT22;10059;59.850;10.454;2023-06-10T00:17:37;10.50;99.90
19799;DHT22;10059;59.850;10.454;2023-06-10T00:20:06;10.50;99.90
19799;DHT22;10059;59.850;10.454;2023-06-10T00:22:35;10.50;99.90
19799;DHT22;10059;59.850;10.454;2023-06-10T00:25:03;10.60;99.90
19799;DHT22;10059;59.850;10.454;2023-06-10T00:27:30;10.50;99.90
19799;DHT22;10059;59.850;10.454;2023-06-10T00:30:01;10.30;99.90
19799;DHT22;10059;59.850;10.454;2023-06-10T00:32:29;10.20;99.90
19799;DHT22;10059;59.850;10.454;2023-06-10T00:34:56;10.30;99.90
19799;DHT22;10059;59.850;10.454;2023-06-10T00:37:23;10.10;99.90
19799;DHT22;10059;59.850;10.454;2023-06-10T00:39:51;10.10;99.90
19799;DHT22;10059;59.850;10.454;2023-06-10T00:42:18;10.10;99.90
19799;DHT22;10059;59.850;10.454;2023-06-10T00:44:46;10.00;99.90
19799;DHT22;10059;59.850;10.454;2023-06-10T00:47:13;9.90;99.90
19799;DHT22;10059;59.850;10.454;2023-06-10T00:49:40;10.10;99.90
19799;DHT22;10059;59.850;10.454;2023-06-10T00:52:08;10.10;99.90
19799;DHT22;10059;59.850;10.454;2023-06-10T00:54:36;10.00;99.90
19799;DHT22;10059;59.850;10.454;2023-06-10T00:57:05;9.90;99.90
19799;DHT22;10059;59.850;10.454;2023-06-10T00:59:32;9.80;99.90
19799;DHT22;10059;59.850;10.454;2023-06-10T01:02:00;9.80;99.90
19799;DHT22;10059;59.850;10.454;2023-06-10T01:04:27;9.90;99.90
19799;DHT22;10059;59.850;10.454;2023-06-10T01:07:00;10.00;99.90
19799;DHT22;10059;59.850;10.454;2023-06-10T01:09:40;9.90;99.90
19799;DHT22;10059;59.850;10.454;2023-06-10T01:12:14;9.90;99.90
19799;DHT22;10059;59.850;10.454;2023-06-10T01:14:43;9.80;99.90
19799;DHT22;10059;59.850;10.454;2023-06-10T01:17:11;9.90;99.90
19799;DHT22;10059;59.850;10.454;2023-06-10T01:19:38;9.80;99.90
19799;DHT22;10059;59.850;10.454;2023-06-10T01:22:07;9.60;99.90
19799;DHT22;10059;59.850;10.454;2023-06-10T01:24:36;9.80;99.90
19799;DHT22;10059;59.850;10.454;2023-06-10T01:27:12;9.90;99.90
19799;DHT22;10059;59.850;10.454;2023-06-10T01:29:43;9.80;99.90
19799;DHT22;10059;59.850;10.454;2023-06-10T01:32:15;9.70;99.90
19799;DHT22;10059;59.850;10.454;2023-06-10T01:34:44;9.70;99.90
19799;DHT22;10059;59.850;10.454;2023-06-10T01:37:16;9.60;99.90
19799;DHT22;10059;59.850;10.454;2023-06-10T01:39:45;9.70;99.90
19799;DHT22;10059;59.850;10.454;2023-06-10T01:42:13;9.70;99.90
19799;DHT22;10059;59.850;10.454;2023-06-10T01:44:40;9.70;99.90
19799;DHT22;10059;59.850;10.454;2023-06-10T01:47:07;9.70;99.90
19799;DHT22;10059;59.850;10.454;2023-06-10T01:49:34;9.70;99.90
19799;DHT22;10059;59.850;10.454;2023-06-10T01:52:01;9.70;99.90
19799;DHT22;10059;59.850;10.454;2023-06-10T01:54:29;9.80;99.90
19799;DHT22;10059;59.850;10.454;2023-06-10T01:56:56;9.80;99.90
19799;DHT22;10059;59.850;10.454;2023-06-10T01:59:23;9.80;99.90
19799;DHT22;10059;59.850;10.454;2023-06-10T02:01:50;9.60;99.90
19799;DHT22;10059;59.850;10.454;2023-06-10T02:04:17;9.50;99.90
19799;DHT22;10059;59.850;10.454;2023-06-10T02:06:44;9.60;99.90
19799;DHT22;10059;59.850;10.454;2023-06-10T02:09:10;9.60;99.90
19799;DHT22;10059;59.850;10.454;2023-06-10T02:11:39;9.60;99.90
19799;DHT22;10059;59.850;10.454;2023-06-10T02:14:05;9.60;99.90
19799;DHT22;10059;59.850;10.454;2023-06-10T02:16:32;9.70;99.90
19799;DHT22;10059;59.850;10.454;2023-06-10T02:18:59;9.60;99.90
19799;DHT22;10059;59.850;10.454;2023-06-10T02:21:26;9.50;99.90
19799;DHT22;10059;59.850;10.454;2023-06-10T02:23:53;9.40;99.90
19799;DHT22;10059;59.850;10.454;2023-06-10T02:26:19;9.40;99.90
19799;DHT22;10059;59.850;10.454;2023-06-10T02:28:48;9.30;99.90
19799;DHT22;10059;59.850;10.454;2023-06-10T02:31:15;9.40;99.90
19799;DHT22;10059;59.850;10.454;2023-06-10T02:33:43;9.50;99.90
19799;DHT22;10059;59.850;10.454;2023-06-10T02:36:10;9.40;99.90
19799;DHT22;10059;59.850;10.454;2023-06-10T02:38:39;9.50;99.90
19799;DHT22;10059;59.850;10.454;2023-06-10T02:41:06;9.50;99.90
19799;DHT22;10059;59.850;10.454;2023-06-10T02:43:33;9.50;99.90
19799;DHT22;10059;59.850;10.454;2023-06-10T02:46:01;9.60;99.90
19799;DHT22;10059;59.850;10.454;2023-06-10T02:48:28;9.50;99.90
19799;DHT22;10059;59.850;10.454;2023-06-10T02:50:55;9.40;99.90
19799;DHT22;10059;59.850;10.454;2023-06-10T02:53:22;9.30;99.90
19799;DHT22;10059;59.850;10.454;2023-06-10T02:55:49;9.50;99.90
19799;DHT22;10059;59.850;10.454;2023-06-10T02:58:16;9.40;99.90
19799;DHT22;10059;59.850;10.454;2023-06-10T03:00:43;9.60;99.90
19799;DHT22;10059;59.850;10.454;2023-06-10T03:03:12;9.80;99.90
19799;DHT22;10059;59.850;10.454;2023-06-10T03:05:39;9.90;99.90
19799;DHT22;10059;59.850;10.454;2023-06-10T03:08:05;9.90;99.90
19799;DHT22;10059;59.850;10.454;2023-06-10T03:10:32;9.80;99.90
19799;DHT22;10059;59.850;10.454;2023-06-10T03:12:59;9.80;99.90
19799;DHT22;10059;59.850;10.454;2023-06-10T03:15:26;9.90;99.90
19799;DHT22;10059;59.850;10.454;2023-06-10T03:17:54;9.80;99.90
19799;DHT22;10059;59.850;10.454;2023-06-10T03:20:22;9.70;99.90
19799;DHT22;10059;59.850;10.454;2023-06-10T03:22:51;9.70;99.90
19799;DHT22;10059;59.850;10.454;2023-06-10T03:25:18;9.80;99.90
19799;DHT22;10059;59.850;10.454;2023-06-10T03:27:46;10.00;99.90
19799;DHT22;10059;59.850;10.454;2023-06-10T03:30:13;10.10;99.90
19799;DHT22;10059;59.850;10.454;2023-06-10T03:32:40;10.30;99.90
19799;DHT22;10059;59.850;10.454;2023-06-10T03:35:08;10.20;99.90
19799;DHT22;10059;59.850;10.454;2023-06-10T03:37:36;10.30;99.90
19799;DHT22;10059;59.850;10.454;2023-06-10T03:40:04;10.40;99.90
19799;DHT22;10059;59.850;10.454;2023-06-10T03:42:32;10.40;99.90
19799;DHT22;10059;59.850;10.454;2023-06-10T03:44:58;10.50;99.90
19799;DHT22;10059;59.850;10.454;2023-06-10T03:47:25;10.60;99.90
19799;DHT22;10059;59.850;10.454;2023-06-10T03:49:52;10.80;99.90
19799;DHT22;10059;59.850;10.454;2023-06-10T03:52:19;11.10;99.90
19799;DHT22;10059;59.850;10.454;2023-06-10T03:54:47;11.20;99.90
19799;DHT22;10059;59.850;10.454;2023-06-10T03:57:14;11.40;99.90
19799;DHT22;10059;59.850;10.454;2023-06-10T03:59:41;11.40;99.90
19799;DHT22;10059;59.850;10.454;2023-06-10T04:02:08;11.60;99.90
19799;DHT22;10059;59.850;10.454;2023-06-10T04:04:35;11.80;99.90
19799;DHT22;10059;59.850;10.454;2023-06-10T04:07:03;11.90;99.90
19799;DHT22;10059;59.850;10.454;2023-06-10T04:09:30;12.10;99.90
19799;DHT22;10059;59.850;10.454;2023-06-10T04:11:58;12.40;99.90
19799;DHT22;10059;59.850;10.454;2023-06-10T04:14:25;12.50;99.90
19799;DHT22;10059;59.850;10.454;2023-06-10T04:16:52;12.80;99.90
19799;DHT22;10059;59.850;10.454;2023-06-10T04:19:19;12.90;99.90
19799;DHT22;10059;59.850;10.454;2023-06-10T04:21:46;13.00;99.90
19799;DHT22;10059;59.850;10.454;2023-06-10T04:24:13;13.30;99.90
19799;DHT22;10059;59.850;10.454;2023-06-10T04:26:40;13.50;99.90
19799;DHT22;10059;59.850;10.454;2023-06-10T04:29:08;13.70;99.90
19799;DHT22;10059;59.850;10.454;2023-06-10T04:31:35;13.80;99.90
19799;DHT22;10059;59.850;10.454;2023-06-10T04:34:02;13.80;99.90
19799;DHT22;10059;59.850;10.454;2023-06-10T04:36:29;13.90;99.90
19799;DHT22;10059;59.850;10.454;2023-06-10T04:38:56;14.20;99.90
19799;DHT22;10059;59.850;10.454;2023-06-10T04:41:22;14.40;99.90
19799;DHT22;10059;59.850;10.454;2023-06-10T04:43:49;14.60;99.90
19799;DHT22;10059;59.850;10.454;2023-06-10T04:46:18;14.60;99.90
19799;DHT22;10059;59.850;10.454;2023-06-10T04:48:45;14.80;99.90
19799;DHT22;10059;59.850;10.454;2023-06-10T04:51:12;15.00;99.90
19799;DHT22;10059;59.850;10.454;2023-06-10T04:53:39;15.10;99.90
19799;DHT22;10059;59.850;10.454;2023-06-10T04:56:07;15.20;99.90
19799;DHT22;10059;59.850;10.454;2023-06-10T04:58:34;15.30;99.90
19799;DHT22;10059;59.850;10.454;2023-06-10T05:01:01;15.30;99.90
19799;DHT22;10059;59.850;10.454;2023-06-10T05:03:29;15.30;99.90
19799;DHT22;10059;59.850;10.454;2023-06-10T05:05:56;15.30;99.90
19799;DHT22;10059;59.850;10.454;2023-06-10T05:08:23;15.10;99.90
19799;DHT22;10059;59.850;10.454;2023-06-10T05:10:50;15.10;99.90
19799;DHT22;10059;59.850;10.454;2023-06-10T05:13:17;15.40;99.90
19799;DHT22;10059;59.850;10.454;2023-06-10T05:15:44;15.50;99.90
19799;DHT22;10059;59.850;10.454;2023-06-10T05:18:12;15.70;99.90
19799;DHT22;10059;59.850;10.454;2023-06-10T05:20:40;15.60;99.90
19799;DHT22;10059;59.850;10.454;2023-06-10T05:23:07;15.90;99.90
19799;DHT22;10059;59.850;10.454;2023-06-10T05:25:34;16.20;99.90
19799;DHT22;10059;59.850;10.454;2023-06-10T05:28:01;16.30;99.90
19799;DHT22;10059;59.850;10.454;2023-06-10T05:30:28;16.30;99.90
19799;DHT22;10059;59.850;10.454;2023-06-10T05:32:55;15.80;99.90
19799;DHT22;10059;59.850;10.454;2023-06-10T05:35:22;16.10;99.90
19799;DHT22;10059;59.850;10.454;2023-06-10T05:37:50;16.30;99.90
19799;DHT22;10059;59.850;10.454;2023-06-10T05:40:17;16.30;99.90
19799;DHT22;10059;59.850;10.454;2023-06-10T05:42:44;16.00;99.90
19799;DHT22;10059;59.850;10.454;2023-06-10T05:45:11;16.40;99.90
19799;DHT22;10059;59.850;10.454;2023-06-10T05:47:38;16.50;99.90
19799;DHT22;10059;59.850;10.454;2023-06-10T05:50:06;16.70;99.90
19799;DHT22;10059;59.850;10.454;2023-06-10T05:52:34;16.90;99.90
19799;DHT22;10059;59.850;10.454;2023-06-10T05:55:02;16.40;99.90
19799;DHT22;10059;59.850;10.454;2023-06-10T05:57:29;16.70;99.90
19799;DHT22;10059;59.850;10.454;2023-06-10T05:59:56;17.20;99.90
19799;DHT22;10059;59.850;10.454;2023-06-10T06:02:23;17.40;99.90
19799;DHT22;10059;59.850;10.454;2023-06-10T06:04:49;17.20;99.90
19799;DHT22;10059;59.850;10.454;2023-06-10T06:07:16;17.40;99.90
19799;DHT22;10059;59.850;10.454;2023-06-10T06:09:46;17.40;99.90
19799;DHT22;10059;59.850;10.454;2023-06-10T06:12:14;17.10;99.90
19799;DHT22;10059;59.850;10.454;2023-06-10T06:14:41;17.60;99.90
19799;DHT22;10059;59.850;10.454;2023-06-10T06:17:08;17.90;99.90
19799;DHT22;10059;59.850;10.454;2023-06-10T06:19:34;18.50;99.90
19799;DHT22;10059;59.850;10.454;2023-06-10T06:22:01;18.80;99.90
19799;DHT22;10059;59.850;10.454;2023-06-10T06:24:29;18.70;99.90
19799;DHT22;10059;59.850;10.454;2023-06-10T06:26:55;18.80;99.90
19799;DHT22;10059;59.850;10.454;2023-06-10T06:29:24;18.50;99.90
19799;DHT22;10059;59.850;10.454;2023-06-10T06:31:50;18.50;99.90
19799;DHT22;10059;59.850;10.454;2023-06-10T06:34:17;18.50;99.90
19799;DHT22;10059;59.850;10.454;2023-06-10T06:36:44;18.50;99.90
19799;DHT22;10059;59.850;10.454;2023-06-10T06:39:11;18.70;99.80
19799;DHT22;10059;59.850;10.454;2023-06-10T06:41:38;18.80;99.90
19799;DHT22;10059;59.850;10.454;2023-06-10T06:44:05;18.70;99.90
19799;DHT22;10059;59.850;10.454;2023-06-10T06:46:33;19.30;99.90
19799;DHT22;10059;59.850;10.454;2023-06-10T06:49:00;18.80;99.60
19799;DHT22;10059;59.850;10.454;2023-06-10T06:51:27;18.70;99.90
19799;DHT22;10059;59.850;10.454;2023-06-10T06:53:54;19.10;99.40
19799;DHT22;10059;59.850;10.454;2023-06-10T06:56:24;19.40;98.30
19799;DHT22;10059;59.850;10.454;2023-06-10T06:58:52;18.70;96.30
19799;DHT22;10059;59.850;10.454;2023-06-10T07:01:19;19.00;96.40
19799;DHT22;10059;59.850;10.454;2023-06-10T07:03:47;18.90;96.40
19799;DHT22;10059;59.850;10.454;2023-06-10T07:06:14;19.50;95.80
19799;DHT22;10059;59.850;10.454;2023-06-10T07:08:41;20.10;94.60
19799;DHT22;10059;59.850;10.454;2023-06-10T07:11:08;19.50;94.10
19799;DHT22;10059;59.850;10.454;2023-06-10T07:13:35;20.00;93.60
19799;DHT22;10059;59.850;10.454;2023-06-10T07:16:02;19.80;94.30
19799;DHT22;10059;59.850;10.454;2023-06-10T07:18:29;19.50;93.50
19799;DHT22;10059;59.850;10.454;2023-06-10T07:20:57;19.90;93.80
19799;DHT22;10059;59.850;10.454;2023-06-10T07:23:24;20.10;94.50
19799;DHT22;10059;59.850;10.454;2023-06-10T07:25:51;20.10;93.50
19799;DHT22;10059;59.850;10.454;2023-06-10T07:28:17;20.20;93.60
19799;DHT22;10059;59.850;10.454;2023-06-10T07:30:44;20.30;92.80
19799;DHT22;10059;59.850;10.454;2023-06-10T07:33:11;20.50;91.70
19799;DHT22;10059;59.850;10.454;2023-06-10T07:35:38;20.00;90.60
19799;DHT22;10059;59.850;10.454;2023-06-10T07:38:06;19.90;91.10
19799;DHT22;10059;59.850;10.454;2023-06-10T07:40:33;20.50;90.50
19799;DHT22;10059;59.850;10.454;2023-06-10T07:43:00;20.30;91.60
19799;DHT22;10059;59.850;10.454;2023-06-10T07:45:27;20.50;90.10
19799;DHT22;10059;59.850;10.454;2023-06-10T07:47:54;20.10;86.90
19799;DHT22;10059;59.850;10.454;2023-06-10T07:50:21;20.30;86.80
19799;DHT22;10059;59.850;10.454;2023-06-10T07:52:48;20.30;90.70
19799;DHT22;10059;59.850;10.454;2023-06-10T07:55:16;20.70;85.70
19799;DHT22;10059;59.850;10.454;2023-06-10T07:57:43;20.50;84.90
19799;DHT22;10059;59.850;10.454;2023-06-10T08:00:10;21.20;86.00
19799;DHT22;10059;59.850;10.454;2023-06-10T08:02:37;21.70;86.20
19799;DHT22;10059;59.850;10.454;2023-06-10T08:05:05;21.40;83.70
19799;DHT22;10059;59.850;10.454;2023-06-10T08:07:31;21.80;88.30
19799;DHT22;10059;59.850;10.454;2023-06-10T08:09:58;21.90;82.40
19799;DHT22;10059;59.850;10.454;2023-06-10T08:12:26;22.30;82.50
19799;DHT22;10059;59.850;10.454;2023-06-10T08:14:53;22.40;82.00
19799;DHT22;10059;59.850;10.454;2023-06-10T08:17:20;21.90;80.70
19799;DHT22;10059;59.850;10.454;2023-06-10T08:19:47;21.40;81.20
19799;DHT22;10059;59.850;10.454;2023-06-10T08:22:14;21.80;82.60
19799;DHT22;10059;59.850;10.454;2023-06-10T08:24:41;22.50;81.30
19799;DHT22;10059;59.850;10.454;2023-06-10T08:27:08;22.20;79.40
19799;DHT22;10059;59.850;10.454;2023-06-10T08:29:37;21.90;80.00
19799;DHT22;10059;59.850;10.454;2023-06-10T08:32:04;22.20;78.30
19799;DHT22;10059;59.850;10.454;2023-06-10T08:34:33;22.50;78.50
19799;DHT22;10059;59.850;10.454;2023-06-10T08:37:00;22.20;78.20
19799;DHT22;10059;59.850;10.454;2023-06-10T08:39:27;22.70;78.80
19799;DHT22;10059;59.850;10.454;2023-06-10T08:42:04;22.10;78.90
19799;DHT22;10059;59.850;10.454;2023-06-10T08:44:37;21.80;78.70
19799;DHT22;10059;59.850;10.454;2023-06-10T08:47:09;21.90;77.90
19799;DHT22;10059;59.850;10.454;2023-06-10T08:49:44;21.40;78.80
19799;DHT22;10059;59.850;10.454;2023-06-10T08:52:15;21.90;79.60
19799;DHT22;10059;59.850;10.454;2023-06-10T08:54:45;22.60;78.70
19799;DHT22;10059;59.850;10.454;2023-06-10T08:57:15;22.60;78.50
19799;DHT22;10059;59.850;10.454;2023-06-10T08:59:45;23.20;75.50
19799;DHT22;10059;59.850;10.454;2023-06-10T09:02:14;22.40;77.60
19799;DHT22;10059;59.850;10.454;2023-06-10T09:04:42;22.30;76.70
19799;DHT22;10059;59.850;10.454;2023-06-10T09:07:10;22.30;78.00
19799;DHT22;10059;59.850;10.454;2023-06-10T09:09:37;22.40;77.60
19799;DHT22;10059;59.850;10.454;2023-06-10T09:12:05;22.50;74.60
19799;DHT22;10059;59.850;10.454;2023-06-10T09:14:32;23.20;74.20
19799;DHT22;10059;59.850;10.454;2023-06-10T09:17:01;23.20;75.20
19799;DHT22;10059;59.850;10.454;2023-06-10T09:19:28;23.30;75.70
19799;DHT22;10059;59.850;10.454;2023-06-10T09:21:55;23.20;76.30
19799;DHT22;10059;59.850;10.454;2023-06-10T09:24:22;23.30;73.60
19799;DHT22;10059;59.850;10.454;2023-06-10T09:26:49;24.00;72.40
19799;DHT22;10059;59.850;10.454;2023-06-10T09:29:17;23.60;70.00
19799;DHT22;10059;59.850;10.454;2023-06-10T09:31:44;23.20;72.10
19799;DHT22;10059;59.850;10.454;2023-06-10T09:34:14;22.90;74.00
19799;DHT22;10059;59.850;10.454;2023-06-10T09:36:42;22.90;71.60
19799;DHT22;10059;59.850;10.454;2023-06-10T09:39:14;23.20;72.50
19799;DHT22;10059;59.850;10.454;2023-06-10T09:41:42;23.90;71.40
19799;DHT22;10059;59.850;10.454;2023-06-10T09:44:12;22.90;69.10
19799;DHT22;10059;59.850;10.454;2023-06-10T09:46:40;23.50;70.20
19799;DHT22;10059;59.850;10.454;2023-06-10T09:49:07;22.90;70.80
19799;DHT22;10059;59.850;10.454;2023-06-10T09:51:36;23.60;72.90
19799;DHT22;10059;59.850;10.454;2023-06-10T09:54:03;23.30;70.80
19799;DHT22;10059;59.850;10.454;2023-06-10T09:56:34;22.90;71.70
19799;DHT22;10059;59.850;10.454;2023-06-10T09:59:02;23.50;70.30
19799;DHT22;10059;59.850;10.454;2023-06-10T10:01:30;23.80;68.80
19799;DHT22;10059;59.850;10.454;2023-06-10T10:03:58;23.30;67.10
19799;DHT22;10059;59.850;10.454;2023-06-10T10:06:26;23.50;66.60
19799;DHT22;10059;59.850;10.454;2023-06-10T10:08:55;23.70;68.10
19799;DHT22;10059;59.850;10.454;2023-06-10T10:11:23;23.40;67.60
19799;DHT22;10059;59.850;10.454;2023-06-10T10:13:52;23.60;67.40
19799;DHT22;10059;59.850;10.454;2023-06-10T10:16:21;24.00;66.40
19799;DHT22;10059;59.850;10.454;2023-06-10T10:18:52;24.20;69.40
19799;DHT22;10059;59.850;10.454;2023-06-10T10:21:23;24.20;63.60
19799;DHT22;10059;59.850;10.454;2023-06-10T10:23:56;24.30;64.80
19799;DHT22;10059;59.850;10.454;2023-06-10T10:26:26;23.60;63.60
19799;DHT22;10059;59.850;10.454;2023-06-10T10:28:58;23.90;65.00
19799;DHT22;10059;59.850;10.454;2023-06-10T10:31:29;23.40;64.70
19799;DHT22;10059;59.850;10.454;2023-06-10T10:34:00;24.10;65.00
19799;DHT22;10059;59.850;10.454;2023-06-10T10:36:28;24.10;63.50
19799;DHT22;10059;59.850;10.454;2023-06-10T10:38:57;24.20;64.40
19799;DHT22;10059;59.850;10.454;2023-06-10T10:41:28;23.90;63.40
19799;DHT22;10059;59.850;10.454;2023-06-10T10:43:57;24.20;66.00
19799;DHT22;10059;59.850;10.454;2023-06-10T10:46:24;23.60;64.40
19799;DHT22;10059;59.850;10.454;2023-06-10T10:48:52;23.30;64.70
19799;DHT22;10059;59.850;10.454;2023-06-10T10:51:20;23.80;65.80
19799;DHT22;10059;59.850;10.454;2023-06-10T10:54:12;23.50;63.70
19799;DHT22;10059;59.850;10.454;2023-06-10T10:56:39;24.20;65.50
19799;DHT22;10059;59.850;10.454;2023-06-10T10:59:07;24.60;63.40
19799;DHT22;10059;59.850;10.454;2023-06-10T11:01:41;24.60;65.20
19799;DHT22;10059;59.850;10.454;2023-06-10T11:04:10;24.70;60.30
19799;DHT22;10059;59.850;10.454;2023-06-10T11:06:37;25.00;61.80
19799;DHT22;10059;59.850;10.454;2023-06-10T11:09:26;25.80;60.40
19799;DHT22;10059;59.850;10.454;2023-06-10T11:11:56;25.00;59.60
19799;DHT22;10059;59.850;10.454;2023-06-10T11:14:26;24.40;59.50
19799;DHT22;10059;59.850;10.454;2023-06-10T11:16:57;24.80;59.70
19799;DHT22;10059;59.850;10.454;2023-06-10T11:19:34;25.00;57.70
19799;DHT22;10059;59.850;10.454;2023-06-10T11:22:02;24.60;57.80
19799;DHT22;10059;59.850;10.454;2023-06-10T11:24:30;24.40;57.90
19799;DHT22;10059;59.850;10.454;2023-06-10T11:27:21;24.40;60.30
19799;DHT22;10059;59.850;10.454;2023-06-10T11:29:56;24.90;56.50
19799;DHT22;10059;59.850;10.454;2023-06-10T11:32:23;24.90;56.90
19799;DHT22;10059;59.850;10.454;2023-06-10T11:34:52;24.50;56.40
19799;DHT22;10059;59.850;10.454;2023-06-10T11:37:20;25.10;58.90
19799;DHT22;10059;59.850;10.454;2023-06-10T11:39:51;25.70;59.00
19799;DHT22;10059;59.850;10.454;2023-06-10T11:42:19;24.40;54.60
19799;DHT22;10059;59.850;10.454;2023-06-10T11:44:50;24.60;55.60
19799;DHT22;10059;59.850;10.454;2023-06-10T11:47:17;24.70;55.00
19799;DHT22;10059;59.850;10.454;2023-06-10T11:49:44;25.50;57.20
19799;DHT22;10059;59.850;10.454;2023-06-10T11:52:11;25.70;55.70
19799;DHT22;10059;59.850;10.454;2023-06-10T11:54:38;25.10;53.90
19799;DHT22;10059;59.850;10.454;2023-06-10T11:57:06;24.20;54.60
19799;DHT22;10059;59.850;10.454;2023-06-10T11:59:34;24.80;54.40
19799;DHT22;10059;59.850;10.454;2023-06-10T12:02:01;25.40;54.40
19799;DHT22;10059;59.850;10.454;2023-06-10T12:04:28;25.90;51.70
19799;DHT22;10059;59.850;10.454;2023-06-10T12:06:55;26.00;53.10
19799;DHT22;10059;59.850;10.454;2023-06-10T12:09:23;26.50;52.50
19799;DHT22;10059;59.850;10.454;2023-06-10T12:11:51;25.50;50.30
19799;DHT22;10059;59.850;10.454;2023-06-10T12:17:23;24.70;52.50
19799;DHT22;10059;59.850;10.454;2023-06-10T12:19:50;25.50;52.30
19799;DHT22;10059;59.850;10.454;2023-06-10T12:22:17;25.70;51.90
19799;DHT22;10059;59.850;10.454;2023-06-10T12:24:45;24.70;52.10
19799;DHT22;10059;59.850;10.454;2023-06-10T12:27:12;24.10;53.00
19799;DHT22;10059;59.850;10.454;2023-06-10T12:29:39;23.50;54.40
19799;DHT22;10059;59.850;10.454;2023-06-10T12:32:17;24.00;55.10
19799;DHT22;10059;59.850;10.454;2023-06-10T12:34:47;24.40;52.50
19799;DHT22;10059;59.850;10.454;2023-06-10T12:37:14;25.30;53.60
19799;DHT22;10059;59.850;10.454;2023-06-10T12:39:41;25.50;53.30
19799;DHT22;10059;59.850;10.454;2023-06-10T12:42:09;25.80;52.00
19799;DHT22;10059;59.850;10.454;2023-06-10T12:44:39;24.80;52.20
19799;DHT22;10059;59.850;10.454;2023-06-10T12:47:10;24.70;52.50
19799;DHT22;10059;59.850;10.454;2023-06-10T12:49:38;24.70;50.50
19799;DHT22;10059;59.850;10.454;2023-06-10T12:52:07;24.20;50.10
19799;DHT22;10059;59.850;10.454;2023-06-10T12:54:34;24.50;51.50
19799;DHT22;10059;59.850;10.454;2023-06-10T12:57:01;24.70;51.80
19799;DHT22;10059;59.850;10.454;2023-06-10T12:59:28;25.10;53.30
19799;DHT22;10059;59.850;10.454;2023-06-10T13:01:57;25.00;51.60
19799;DHT22;10059;59.850;10.454;2023-06-10T13:04:24;24.90;51.50
19799;DHT22;10059;59.850;10.454;2023-06-10T13:06:51;25.50;51.70
19799;DHT22;10059;59.850;10.454;2023-06-10T13:09:19;25.80;50.70
19799;DHT22;10059;59.850;10.454;2023-06-10T13:11:46;25.40;49.70
19799;DHT22;10059;59.850;10.454;2023-06-10T13:14:12;25.70;49.70
19799;DHT22;10059;59.850;10.454;2023-06-10T13:16:40;25.90;50.10
19799;DHT22;10059;59.850;10.454;2023-06-10T13:19:06;24.80;49.60
19799;DHT22;10059;59.850;10.454;2023-06-10T13:21:34;24.40;49.30
19799;DHT22;10059;59.850;10.454;2023-06-10T13:24:01;24.60;50.50
19799;DHT22;10059;59.850;10.454;2023-06-10T13:26:29;24.60;50.00
19799;DHT22;10059;59.850;10.454;2023-06-10T13:28:56;24.40;50.20
19799;DHT22;10059;59.850;10.454;2023-06-10T13:31:23;24.90;51.80
19799;DHT22;10059;59.850;10.454;2023-06-10T13:33:49;25.30;49.40
19799;DHT22;10059;59.850;10.454;2023-06-10T13:36:16;25.20;48.60
19799;DHT22;10059;59.850;10.454;2023-06-10T13:38:43;25.40;47.90
19799;DHT22;10059;59.850;10.454;2023-06-10T13:41:10;25.30;48.50
19799;DHT22;10059;59.850;10.454;2023-06-10T13:43:39;24.90;49.60
19799;DHT22;10059;59.850;10.454;2023-06-10T13:46:06;24.60;49.70
19799;DHT22;10059;59.850;10.454;2023-06-10T13:48:33;24.70;49.60
19799;DHT22;10059;59.850;10.454;2023-06-10T13:51:00;25.00;49.60
19799;DHT22;10059;59.850;10.454;2023-06-10T13:53:27;25.10;48.60
19799;DHT22;10059;59.850;10.454;2023-06-10T13:55:54;25.10;50.20
19799;DHT22;10059;59.850;10.454;2023-06-10T13:58:21;25.30;48.30
19799;DHT22;10059;59.850;10.454;2023-06-10T14:00:49;24.40;48.60
19799;DHT22;10059;59.850;10.454;2023-06-10T14:03:16;24.00;48.70
19799;DHT22;10059;59.850;10.454;2023-06-10T14:05:43;24.20;49.70
19799;DHT22;10059;59.850;10.454;2023-06-10T14:08:09;23.40;49.20
19799;DHT22;10059;59.850;10.454;2023-06-10T14:10:37;23.90;50.50
19799;DHT22;10059;59.850;10.454;2023-06-10T14:13:04;24.30;47.50
19799;DHT22;10059;59.850;10.454;2023-06-10T14:15:31;24.60;48.80
19799;DHT22;10059;59.850;10.454;2023-06-10T14:18:00;24.30;48.20
19799;DHT22;10059;59.850;10.454;2023-06-10T14:20:27;25.00;48.90
19799;DHT22;10059;59.850;10.454;2023-06-10T14:22:56;25.50;48.10
19799;DHT22;10059;59.850;10.454;2023-06-10T14:25:23;25.10;47.70
19799;DHT22;10059;59.850;10.454;2023-06-10T14:27:50;24.30;48.60
19799;DHT22;10059;59.850;10.454;2023-06-10T14:30:17;24.00;48.40
19799;DHT22;10059;59.850;10.454;2023-06-10T14:32:44;23.80;48.00
19799;DHT22;10059;59.850;10.454;2023-06-10T14:35:12;23.70;47.70
19799;DHT22;10059;59.850;10.454;2023-06-10T14:37:39;24.10;47.60
19799;DHT22;10059;59.850;10.454;2023-06-10T14:40:07;24.00;48.10
19799;DHT22;10059;59.850;10.454;2023-06-10T14:42:34;23.90;47.40
19799;DHT22;10059;59.850;10.454;2023-06-10T14:45:01;24.60;48.60
19799;DHT22;10059;59.850;10.454;2023-06-10T14:47:27;24.30;46.50
19799;DHT22;10059;59.850;10.454;2023-06-10T14:49:54;24.30;46.80
19799;DHT22;10059;59.850;10.454;2023-06-10T14:52:24;24.70;47.90
19799;DHT22;10059;59.850;10.454;2023-06-10T14:54:50;24.50;49.50
19799;DHT22;10059;59.850;10.454;2023-06-10T14:57:17;24.80;47.20
19799;DHT22;10059;59.850;10.454;2023-06-10T14:59:44;25.00;48.90
19799;DHT22;10059;59.850;10.454;2023-06-10T15:02:11;24.80;47.50
19799;DHT22;10059;59.850;10.454;2023-06-10T15:04:37;24.40;48.70
19799;DHT22;10059;59.850;10.454;2023-06-10T15:07:05;23.80;48.70
19799;DHT22;10059;59.850;10.454;2023-06-10T15:09:33;23.50;48.00
19799;DHT22;10059;59.850;10.454;2023-06-10T15:12:00;23.30;49.20
19799;DHT22;10059;59.850;10.454;2023-06-10T15:14:27;23.70;48.60
19799;DHT22;10059;59.850;10.454;2023-06-10T15:16:54;24.30;49.50
19799;DHT22;10059;59.850;10.454;2023-06-10T15:19:21;24.40;47.70
19799;DHT22;10059;59.850;10.454;2023-06-10T15:21:48;23.90;49.50
19799;DHT22;10059;59.850;10.454;2023-06-10T15:24:15;23.60;50.00